Aviation Digital Data Service (ADDS)

Output produced by METARs form (0327 UTC 30 May 2017)
found at http://www.aviationweather.gov/adds/metars/
 
HRYR 300300Z 30005KT 9999 FEW026 17/13 Q1022 NOSIG
HRYR 292300Z 3000/3106 22003KT 9999 FEW026 
     BECMG 3004/3007 VRB03KT SCT025 SCT100 
     FM300900 17008KT BKN025 
     TEMPO 3012/3016 14010KT FEW023CB SCT025 
     FM302100 32004KT FEW026 SCT100 
     BECMG3103/3106 00000KT SCT026 SCT100